createdAt,value
2023-03-27T00:00:57.709Z,8.47
2023-03-27T00:04:17.896Z,8.45
2023-03-27T00:07:36.402Z,8.33
2023-03-27T00:10:55.535Z,8.29
2023-03-27T00:14:12.591Z,8.25
2023-03-27T00:17:28.975Z,8.17
2023-03-27T00:20:45.643Z,8.21
2023-03-27T00:24:02.229Z,8.29
2023-03-27T00:27:18.569Z,8.33
2023-03-27T00:30:36.947Z,8.31
2023-03-27T00:33:53.586Z,8.28
2023-03-27T00:37:10.196Z,8.14
2023-03-27T00:40:26.821Z,8.21
2023-03-27T00:43:47.890Z,8.08
2023-03-27T00:47:05.697Z,8.16
2023-03-27T00:50:26.541Z,8.25
2023-03-27T00:53:43.468Z,8.25
2023-03-27T00:57:01.200Z,8.20
2023-03-27T01:00:20.965Z,8.26
2023-03-27T01:03:40.639Z,8.23
2023-03-27T01:06:56.909Z,8.15
2023-03-27T01:10:15.882Z,8.21
2023-03-27T01:13:59.826Z,8.26
2023-03-27T01:17:28.352Z,8.27
2023-03-27T01:21:13.310Z,8.16
2023-03-27T01:25:18.620Z,8.19
2023-03-27T01:28:50.919Z,8.15
2023-03-27T01:32:41.394Z,8.12
2023-03-27T01:36:30.415Z,8.04
2023-03-27T01:39:55.814Z,7.97
2023-03-27T01:43:16.577Z,7.99
2023-03-27T01:46:41.778Z,7.93
2023-03-27T01:50:03.331Z,7.93
2023-03-27T01:53:24.000Z,7.80
2023-03-27T01:56:47.126Z,7.73
2023-03-27T02:00:18.680Z,7.71
2023-03-27T02:03:38.899Z,7.74
2023-03-27T02:07:00.012Z,7.80
2023-03-27T02:10:22.641Z,7.85
2023-03-27T02:13:44.218Z,7.79
2023-03-27T02:17:04.416Z,7.81
2023-03-27T02:20:25.082Z,7.85
2023-03-27T02:23:43.988Z,7.49
2023-03-27T02:27:05.776Z,7.59
2023-03-27T02:30:27.297Z,7.66
2023-03-27T02:33:52.904Z,7.67
2023-03-27T02:37:16.469Z,7.72
2023-03-27T02:40:50.196Z,7.70
2023-03-27T02:44:24.396Z,7.72
2023-03-27T02:47:46.854Z,7.79
2023-03-27T02:51:07.622Z,7.85
2023-03-27T02:54:28.614Z,7.84
2023-03-27T02:57:52.090Z,7.83
2023-03-27T03:01:27.631Z,7.83
2023-03-27T03:04:54.560Z,7.83
2023-03-27T03:08:13.808Z,7.83
2023-03-27T03:11:31.807Z,7.81
2023-03-27T03:14:50.371Z,7.53
2023-03-27T03:18:06.778Z,7.55
2023-03-27T03:21:23.282Z,7.61
2023-03-27T03:24:41.980Z,7.62
2023-03-27T03:28:01.260Z,7.65
2023-03-27T03:31:19.445Z,7.61
2023-03-27T03:34:35.996Z,7.59
2023-03-27T03:37:52.621Z,7.63
2023-03-27T03:41:09.821Z,7.59
2023-03-27T03:44:26.727Z,7.59
2023-03-27T03:47:43.434Z,7.60
2023-03-27T03:51:00.533Z,7.64
2023-03-27T03:54:17.151Z,7.64
2023-03-27T03:57:33.850Z,7.64
2023-03-27T04:00:52.208Z,7.47
2023-03-27T04:04:11.137Z,7.48
2023-03-27T04:07:38.304Z,7.53
2023-03-27T04:11:12.579Z,7.53
2023-03-27T04:14:36.607Z,7.54
2023-03-27T04:17:54.973Z,7.56
2023-03-27T04:21:14.587Z,7.61
2023-03-27T04:24:32.398Z,7.65
2023-03-27T04:27:51.098Z,7.70
2023-03-27T04:31:11.216Z,7.67
2023-03-27T04:34:46.281Z,7.68
2023-03-27T04:38:06.982Z,7.64
2023-03-27T04:41:30.003Z,7.64
2023-03-27T04:44:48.586Z,7.70
2023-03-27T04:48:06.620Z,7.70
2023-03-27T04:51:23.479Z,7.72
2023-03-27T04:54:41.338Z,7.74
2023-03-27T04:57:58.441Z,7.76
2023-03-27T05:01:15.585Z,7.75
2023-03-27T05:04:41.579Z,7.73
2023-03-27T05:08:05.547Z,7.71
2023-03-27T05:11:22.155Z,7.71
2023-03-27T05:14:38.570Z,7.72
2023-03-27T05:17:58.380Z,7.73
2023-03-27T05:21:15.679Z,7.69
2023-03-27T05:24:32.548Z,7.65
2023-03-27T05:27:54.280Z,7.66
2023-03-27T05:31:13.398Z,7.68
2023-03-27T05:34:40.625Z,7.66
2023-03-27T05:38:00.778Z,7.54
2023-03-27T05:41:25.273Z,7.44
2023-03-27T05:44:43.955Z,7.46
2023-03-27T05:48:03.238Z,7.52
2023-03-27T05:51:22.477Z,7.42
2023-03-27T05:54:38.943Z,7.49
2023-03-27T05:57:57.395Z,7.47
2023-03-27T06:01:15.420Z,7.48
2023-03-27T06:04:32.166Z,7.51
2023-03-27T06:07:53.569Z,7.57
2023-03-27T06:11:15.858Z,7.64
2023-03-27T06:14:36.326Z,7.70
2023-03-27T06:17:56.133Z,7.71
2023-03-27T06:21:13.906Z,7.75
2023-03-27T06:24:30.789Z,7.78
2023-03-27T06:27:54.333Z,7.78
2023-03-27T06:31:11.282Z,7.78
2023-03-27T06:34:38.934Z,7.63
2023-03-27T06:37:59.908Z,7.61
2023-03-27T06:41:17.042Z,7.67
2023-03-27T06:44:51.452Z,7.65
2023-03-27T06:48:20.594Z,7.66
2023-03-27T06:51:31.477Z,7.69
2023-03-27T06:54:48.587Z,7.67
2023-03-27T06:58:07.469Z,7.63
2023-03-27T07:01:24.330Z,7.60
2023-03-27T07:05:04.301Z,7.55
2023-03-27T07:11:36.428Z,7.48
2023-03-27T07:14:56.900Z,7.53
2023-03-27T07:18:18.590Z,7.51
2023-03-27T07:21:49.348Z,7.51
2023-03-27T07:25:19.756Z,7.49
2023-03-27T07:28:45.521Z,7.52
2023-03-27T07:32:06.954Z,7.48
2023-03-27T07:35:28.320Z,7.58
2023-03-27T07:39:05.861Z,7.50
2023-03-27T07:42:25.567Z,7.55
2023-03-27T07:45:50.588Z,7.63
2023-03-27T07:49:10.345Z,7.71
2023-03-27T07:52:28.326Z,7.74
2023-03-27T07:55:49.149Z,7.76
2023-03-27T07:59:04.858Z,7.82
2023-03-27T08:02:26.056Z,7.85
2023-03-27T08:05:42.912Z,7.84
2023-03-27T08:09:02.871Z,7.84
2023-03-27T08:12:23.072Z,7.85
2023-03-27T08:15:41.291Z,7.82
2023-03-27T08:19:04.243Z,7.85
2023-03-27T08:22:25.457Z,7.88
2023-03-27T08:26:04.703Z,7.88
2023-03-27T08:29:23.873Z,7.89
2023-03-27T08:32:40.888Z,7.89
2023-03-27T08:35:59.331Z,7.87
2023-03-27T08:39:15.585Z,7.90
2023-03-27T08:42:49.748Z,7.89
2023-03-27T08:46:11.481Z,7.90
2023-03-27T08:49:32.564Z,7.88
2023-03-27T08:52:56.398Z,7.87
2023-03-27T08:56:20.898Z,7.88
2023-03-27T08:59:40.288Z,7.86
2023-03-27T09:03:05.630Z,7.82
2023-03-27T09:06:31.019Z,7.77
2023-03-27T09:10:02.789Z,7.77
2023-03-27T09:13:26.725Z,7.74
2023-03-27T09:16:50.332Z,7.70
2023-03-27T09:20:26.622Z,7.71
2023-03-27T09:23:49.426Z,7.60
2023-03-27T09:27:18.443Z,7.54
2023-03-27T09:30:39.080Z,7.58
2023-03-27T09:34:07.241Z,7.50
2023-03-27T09:37:25.206Z,7.57
2023-03-27T09:40:48.433Z,7.53
2023-03-27T09:44:11.210Z,7.43
2023-03-27T09:47:35.985Z,7.29
2023-03-27T09:50:55.397Z,7.32
2023-03-27T09:54:22.227Z,7.31
2023-03-27T09:57:41.843Z,7.27
2023-03-27T10:01:14.399Z,7.10
2023-03-27T10:04:35.277Z,6.96
2023-03-27T10:07:54.651Z,6.86
2023-03-27T10:11:22.693Z,6.83
2023-03-27T10:14:46.827Z,6.75
2023-03-27T10:18:07.563Z,6.66
2023-03-27T10:21:32.036Z,6.63
2023-03-27T10:24:53.498Z,6.64
2023-03-27T10:28:27.954Z,6.71
2023-03-27T10:32:07.476Z,6.78
2023-03-27T10:35:39.839Z,6.74
2023-03-27T10:39:06.290Z,6.83
2023-03-27T10:42:24.396Z,6.73
2023-03-27T10:45:45.966Z,6.71
2023-03-27T10:49:09.285Z,6.64
2023-03-27T10:52:31.990Z,6.70
2023-03-27T10:56:01.642Z,6.75
2023-03-27T10:59:28.044Z,6.54
2023-03-27T11:02:43.008Z,6.50
2023-03-27T11:06:01.302Z,6.39
2023-03-27T11:09:28.383Z,6.26
2023-03-27T11:12:51.745Z,6.08
2023-03-27T11:16:17.936Z,6.04
2023-03-27T11:19:53.157Z,5.73
2023-03-27T11:23:33.876Z,5.74
2023-03-27T11:27:14.561Z,5.69
2023-03-27T11:30:45.420Z,5.75
2023-03-27T11:34:07.108Z,5.69
2023-03-27T11:37:32.890Z,5.62
2023-03-27T11:40:52.537Z,5.20
2023-03-27T11:44:09.505Z,5.21
2023-03-27T11:48:02.292Z,5.17
2023-03-27T11:51:26.494Z,5.01
2023-03-27T11:55:12.789Z,4.89
2023-03-27T11:58:36.734Z,4.93
2023-03-27T12:02:00.555Z,4.85
2023-03-27T12:05:27.613Z,4.84
2023-03-27T12:09:19.313Z,4.72
2023-03-27T12:13:06.192Z,4.69
2023-03-27T12:17:03.705Z,4.52
2023-03-27T12:24:21.384Z,4.26
2023-03-27T12:28:06.536Z,4.21
2023-03-27T12:31:55.707Z,4.29
2023-03-27T12:35:26.218Z,4.04
2023-03-27T12:38:53.764Z,3.96
2023-03-27T12:42:26.166Z,3.97
2023-03-27T12:45:53.286Z,4.03
2023-03-27T12:49:14.060Z,3.89
2023-03-27T12:52:33.885Z,3.83
2023-03-27T12:55:56.134Z,3.87
2023-03-27T12:59:28.938Z,3.81
2023-03-27T13:03:36.708Z,3.83
2023-03-27T13:07:03.892Z,3.88
2023-03-27T13:10:47.962Z,3.95
2023-03-27T13:14:48.611Z,3.78
2023-03-27T13:18:33.701Z,3.73
2023-03-27T13:21:57.551Z,3.72
2023-03-27T13:25:36.778Z,3.80
2023-03-27T13:29:03.039Z,3.72
2023-03-27T13:32:41.309Z,3.67
2023-03-27T13:36:27.429Z,3.63
2023-03-27T13:39:53.684Z,3.61
2023-03-27T13:43:34.492Z,3.70
2023-03-27T13:47:00.304Z,3.58
2023-03-27T13:50:35.295Z,3.44
2023-03-27T13:54:19.308Z,3.50
2023-03-27T13:57:53.793Z,3.48
2023-03-27T14:01:39.783Z,3.43
2023-03-27T14:08:38.798Z,3.45
2023-03-27T14:12:16.193Z,3.59
2023-03-27T14:16:21.137Z,3.56
2023-03-27T14:23:02.853Z,3.48
2023-03-27T14:26:25.542Z,3.55
2023-03-27T14:29:43.290Z,3.59
2023-03-27T14:33:02.895Z,3.52
2023-03-27T14:36:22.766Z,3.57
2023-03-27T14:39:38.723Z,3.46
2023-03-27T14:43:02.667Z,3.41
2023-03-27T14:46:22.985Z,3.40
2023-03-27T14:53:06.207Z,3.44
2023-03-27T14:56:35.251Z,3.49
2023-03-27T14:59:56.710Z,3.44
2023-03-27T15:03:19.810Z,3.55
2023-03-27T15:09:56.390Z,3.62
2023-03-27T15:13:18.699Z,3.62
2023-03-27T15:16:39.995Z,3.54
2023-03-27T15:20:01.479Z,3.60
2023-03-27T15:23:24.074Z,3.66
2023-03-27T15:26:42.596Z,3.59
2023-03-27T15:30:03.546Z,3.57
2023-03-27T15:33:25.707Z,3.63
2023-03-27T15:40:33.922Z,3.58
2023-03-27T15:43:52.448Z,3.52
2023-03-27T15:47:09.557Z,3.58
2023-03-27T15:53:46.026Z,3.44
2023-03-27T15:57:09.717Z,3.49
2023-03-27T16:00:27.619Z,3.42
2023-03-27T16:03:45.644Z,3.49
2023-03-27T16:10:21.743Z,3.37
2023-03-27T16:13:46.104Z,3.40
2023-03-27T16:17:30.569Z,3.36
2023-03-27T16:20:49.898Z,3.36
2023-03-27T16:24:06.605Z,3.43
2023-03-27T16:27:23.897Z,3.40
2023-03-27T16:30:43.008Z,3.41
2023-03-27T16:33:59.855Z,3.52
2023-03-27T16:37:16.774Z,3.51
2023-03-27T16:40:33.991Z,3.49
2023-03-27T16:43:52.034Z,3.54
2023-03-27T16:47:08.926Z,3.39
2023-03-27T16:53:41.756Z,3.41
2023-03-27T16:56:58.671Z,3.29
2023-03-27T17:00:21.031Z,3.29
2023-03-27T17:03:38.142Z,3.21
2023-03-27T17:06:54.599Z,3.19
2023-03-27T17:10:12.555Z,3.16
2023-03-27T17:13:29.036Z,3.18
2023-03-27T17:16:45.897Z,3.07
2023-03-27T17:20:03.358Z,2.95
2023-03-27T17:23:21.532Z,3.16
2023-03-27T17:26:41.798Z,3.12
2023-03-27T17:29:59.020Z,3.16
2023-03-27T17:33:16.142Z,3.09
2023-03-27T17:39:49.043Z,3.15
2023-03-27T17:43:05.431Z,3.21
2023-03-27T17:46:23.235Z,3.20
2023-03-27T17:49:40.520Z,3.24
2023-03-27T17:52:57.633Z,3.20
2023-03-27T17:56:16.211Z,3.14
2023-03-27T17:59:32.998Z,3.11
2023-03-27T18:02:49.742Z,3.11
2023-03-27T18:06:10.105Z,3.19
2023-03-27T18:09:26.686Z,3.13
2023-03-27T18:12:44.007Z,3.20
2023-03-27T18:16:04.320Z,3.27
2023-03-27T18:19:20.968Z,3.18
2023-03-27T18:25:53.964Z,3.06
2023-03-27T18:29:11.319Z,3.05
2023-03-27T18:32:28.364Z,3.07
2023-03-27T18:35:46.349Z,2.99
2023-03-27T18:39:03.908Z,2.92
2023-03-27T18:42:20.854Z,2.89
2023-03-27T18:45:37.938Z,2.83
2023-03-27T18:48:55.509Z,2.87
2023-03-27T18:52:26.063Z,2.82
2023-03-27T18:55:42.901Z,2.90
2023-03-27T18:59:00.181Z,2.77
2023-03-27T19:02:18.029Z,2.78
2023-03-27T19:05:36.775Z,2.86
2023-03-27T19:08:53.856Z,2.79
2023-03-27T19:12:10.830Z,2.79
2023-03-27T19:15:45.141Z,2.75
2023-03-27T19:19:20.308Z,2.69
2023-03-27T19:22:42.808Z,2.74
2023-03-27T19:26:16.236Z,2.74
2023-03-27T19:29:34.399Z,2.74
2023-03-27T19:32:52.226Z,2.81
2023-03-27T19:39:26.620Z,2.73
2023-03-27T19:42:43.392Z,2.73
2023-03-27T19:46:15.592Z,2.66
2023-03-27T19:49:27.574Z,2.70
2023-03-27T19:56:15.620Z,2.56
2023-03-27T19:59:32.236Z,2.59
2023-03-27T20:02:48.784Z,2.66
2023-03-27T20:06:09.170Z,2.59
2023-03-27T20:09:26.529Z,2.57
2023-03-27T20:12:42.854Z,2.57
2023-03-27T20:16:00.875Z,2.45
2023-03-27T20:19:18.932Z,2.42
2023-03-27T20:22:46.376Z,2.42
2023-03-27T20:25:57.972Z,2.34
2023-03-27T20:29:15.975Z,2.35
2023-03-27T20:32:33.357Z,2.30
2023-03-27T20:39:07.106Z,2.32
2023-03-27T20:42:26.066Z,2.28
2023-03-27T20:45:44.260Z,2.21
2023-03-27T20:49:00.655Z,2.11
2023-03-27T20:55:39.206Z,2.22
2023-03-27T20:58:52.698Z,2.12
2023-03-27T21:02:09.373Z,2.14
2023-03-27T21:05:27.399Z,2.12
2023-03-27T21:08:44.061Z,2.09
2023-03-27T21:12:02.192Z,2.00
2023-03-27T21:15:20.508Z,2.02
2023-03-27T21:18:37.259Z,2.01
2023-03-27T21:25:10.673Z,2.04
2023-03-27T21:28:27.085Z,2.06
2023-03-27T21:31:43.609Z,2.02
2023-03-27T21:35:00.122Z,2.02
2023-03-27T21:38:17.417Z,2.00
2023-03-27T21:41:34.960Z,2.09
2023-03-27T21:44:54.824Z,2.05
2023-03-27T21:48:11.281Z,1.95
2023-03-27T21:57:54.343Z,1.91
2023-03-27T22:01:11.750Z,1.87
2023-03-27T22:04:28.479Z,1.79
2023-03-27T22:07:46.324Z,1.70
2023-03-27T22:11:06.900Z,1.63
2023-03-27T22:14:23.433Z,1.60
2023-03-27T22:17:40.053Z,1.49
2023-03-27T22:20:56.402Z,1.50
2023-03-27T22:24:13.810Z,1.48
2023-03-27T22:27:30.284Z,1.47
2023-03-27T22:30:47.068Z,1.47
2023-03-27T22:34:05.909Z,1.37
2023-03-27T22:37:22.221Z,1.31
2023-03-27T22:40:38.423Z,1.27
2023-03-27T22:43:54.611Z,1.20
2023-03-27T22:47:10.863Z,1.23
2023-03-27T22:50:27.377Z,1.12
2023-03-27T22:57:00.572Z,1.13
2023-03-27T23:00:20.428Z,1.03
2023-03-27T23:03:37.273Z,0.94
2023-03-27T23:06:53.624Z,0.93
2023-03-27T23:10:10.497Z,0.96
2023-03-27T23:13:26.946Z,0.92
2023-03-27T23:16:43.114Z,0.93
2023-03-27T23:19:59.458Z,0.89
2023-03-27T23:23:15.812Z,0.80
2023-03-27T23:26:32.883Z,0.80
2023-03-27T23:29:49.063Z,0.82
2023-03-27T23:33:05.316Z,0.80
2023-03-27T23:36:24.017Z,0.73
2023-03-27T23:39:40.302Z,0.66
2023-03-27T23:42:56.683Z,0.69
2023-03-27T23:46:13.975Z,0.67
2023-03-27T23:49:30.975Z,0.65
2023-03-27T23:52:47.267Z,0.69
2023-03-27T23:56:05.509Z,0.73
2023-03-27T23:59:22.144Z,0.60
